sensor_id;sensor_type;location;lat;lon;timestamp;P1;durP1;ratioP1;P2;durP2;ratioP2
37771;SDS011;23610;59.380;24.642;2022-12-26T00:01:09;6.72;;;4.45;;
37771;SDS011;23610;59.380;24.642;2022-12-26T00:06:15;8.20;;;5.97;;
37771;SDS011;23610;59.380;24.642;2022-12-26T00:11:21;14.25;;;6.55;;
37771;SDS011;23610;59.380;24.642;2022-12-26T00:16:25;9.80;;;5.88;;
37771;SDS011;23610;59.380;24.642;2022-12-26T00:21:29;10.82;;;5.22;;
37771;SDS011;23610;59.380;24.642;2022-12-26T00:26:32;13.90;;;6.22;;
37771;SDS011;23610;59.380;24.642;2022-12-26T00:31:36;15.10;;;6.13;;
37771;SDS011;23610;59.380;24.642;2022-12-26T00:36:39;10.55;;;6.72;;
37771;SDS011;23610;59.380;24.642;2022-12-26T00:41:42;12.98;;;7.10;;
37771;SDS011;23610;59.380;24.642;2022-12-26T00:46:44;15.40;;;6.55;;
37771;SDS011;23610;59.380;24.642;2022-12-26T00:51:47;12.48;;;6.47;;
37771;SDS011;23610;59.380;24.642;2022-12-26T00:56:50;14.40;;;7.35;;
37771;SDS011;23610;59.380;24.642;2022-12-26T01:01:52;13.82;;;6.85;;
37771;SDS011;23610;59.380;24.642;2022-12-26T01:06:55;11.75;;;7.03;;
37771;SDS011;23610;59.380;24.642;2022-12-26T01:11:58;10.32;;;6.13;;
37771;SDS011;23610;59.380;24.642;2022-12-26T01:17:00;7.80;;;4.97;;
37771;SDS011;23610;59.380;24.642;2022-12-26T01:22:03;9.82;;;6.05;;
37771;SDS011;23610;59.380;24.642;2022-12-26T01:27:08;10.18;;;5.32;;
37771;SDS011;23610;59.380;24.642;2022-12-26T01:32:11;11.20;;;5.38;;
37771;SDS011;23610;59.380;24.642;2022-12-26T01:37:14;11.73;;;5.72;;
37771;SDS011;23610;59.380;24.642;2022-12-26T01:42:21;12.37;;;5.97;;
37771;SDS011;23610;59.380;24.642;2022-12-26T01:47:40;8.45;;;5.70;;
37771;SDS011;23610;59.380;24.642;2022-12-26T01:52:54;9.27;;;5.93;;
37771;SDS011;23610;59.380;24.642;2022-12-26T01:58:08;13.27;;;6.68;;
37771;SDS011;23610;59.380;24.642;2022-12-26T02:03:17;11.52;;;6.65;;
37771;SDS011;23610;59.380;24.642;2022-12-26T02:08:38;14.85;;;6.55;;
37771;SDS011;23610;59.380;24.642;2022-12-26T02:13:42;9.82;;;6.25;;
37771;SDS011;23610;59.380;24.642;2022-12-26T02:18:44;10.05;;;6.05;;
37771;SDS011;23610;59.380;24.642;2022-12-26T02:41:45;10.88;;;5.13;;
37771;SDS011;23610;59.380;24.642;2022-12-26T02:52:26;5.85;;;4.43;;
37771;SDS011;23610;59.380;24.642;2022-12-26T02:58:04;7.47;;;4.47;;
37771;SDS011;23610;59.380;24.642;2022-12-26T03:03:36;14.52;;;7.30;;
37771;SDS011;23610;59.380;24.642;2022-12-26T03:08:59;13.57;;;6.13;;
37771;SDS011;23610;59.380;24.642;2022-12-26T03:14:26;6.70;;;4.38;;
37771;SDS011;23610;59.380;24.642;2022-12-26T03:19:35;6.30;;;4.22;;
37771;SDS011;23610;59.380;24.642;2022-12-26T03:24:59;4.50;;;3.30;;
37771;SDS011;23610;59.380;24.642;2022-12-26T03:30:28;6.82;;;4.28;;
37771;SDS011;23610;59.380;24.642;2022-12-26T03:35:49;5.50;;;3.47;;
37771;SDS011;23610;59.380;24.642;2022-12-26T03:40:59;5.38;;;3.80;;
37771;SDS011;23610;59.380;24.642;2022-12-26T03:46:37;7.45;;;4.35;;
37771;SDS011;23610;59.380;24.642;2022-12-26T03:58:38;26.52;;;12.32;;
37771;SDS011;23610;59.380;24.642;2022-12-26T04:04:15;11.48;;;5.80;;
37771;SDS011;23610;59.380;24.642;2022-12-26T04:09:42;11.50;;;6.80;;
37771;SDS011;23610;59.380;24.642;2022-12-26T04:15:21;16.33;;;8.18;;
37771;SDS011;23610;59.380;24.642;2022-12-26T04:21:15;13.70;;;6.15;;
37771;SDS011;23610;59.380;24.642;2022-12-26T04:26:53;11.15;;;6.40;;
37771;SDS011;23610;59.380;24.642;2022-12-26T04:43:25;9.77;;;5.50;;
37771;SDS011;23610;59.380;24.642;2022-12-26T04:48:52;14.75;;;4.85;;
37771;SDS011;23610;59.380;24.642;2022-12-26T04:54:15;13.82;;;7.03;;
37771;SDS011;23610;59.380;24.642;2022-12-26T04:59:18;9.00;;;4.45;;
37771;SDS011;23610;59.380;24.642;2022-12-26T05:04:22;9.77;;;4.20;;
37771;SDS011;23610;59.380;24.642;2022-12-26T05:09:43;6.93;;;3.10;;
37771;SDS011;23610;59.380;24.642;2022-12-26T05:14:49;6.75;;;3.30;;
37771;SDS011;23610;59.380;24.642;2022-12-26T05:19:51;7.70;;;3.70;;
37771;SDS011;23610;59.380;24.642;2022-12-26T05:25:14;6.90;;;2.30;;
37771;SDS011;23610;59.380;24.642;2022-12-26T05:30:40;19.85;;;6.85;;
37771;SDS011;23610;59.380;24.642;2022-12-26T05:35:42;3.80;;;2.47;;
37771;SDS011;23610;59.380;24.642;2022-12-26T05:40:45;2.80;;;2.00;;
37771;SDS011;23610;59.380;24.642;2022-12-26T05:45:48;4.63;;;2.22;;
37771;SDS011;23610;59.380;24.642;2022-12-26T05:50:50;4.50;;;2.30;;
37771;SDS011;23610;59.380;24.642;2022-12-26T05:55:53;7.75;;;2.33;;
37771;SDS011;23610;59.380;24.642;2022-12-26T06:11:14;4.13;;;2.40;;
37771;SDS011;23610;59.380;24.642;2022-12-26T06:16:18;2.80;;;2.13;;
37771;SDS011;23610;59.380;24.642;2022-12-26T06:21:23;6.68;;;2.22;;
37771;SDS011;23610;59.380;24.642;2022-12-26T06:26:26;2.75;;;2.20;;
37771;SDS011;23610;59.380;24.642;2022-12-26T06:31:29;4.30;;;2.35;;
37771;SDS011;23610;59.380;24.642;2022-12-26T06:36:32;2.63;;;2.08;;
37771;SDS011;23610;59.380;24.642;2022-12-26T06:41:35;4.93;;;2.75;;
37771;SDS011;23610;59.380;24.642;2022-12-26T06:46:38;6.60;;;3.38;;
37771;SDS011;23610;59.380;24.642;2022-12-26T06:51:40;5.40;;;2.97;;
37771;SDS011;23610;59.380;24.642;2022-12-26T06:56:45;4.43;;;2.80;;
37771;SDS011;23610;59.380;24.642;2022-12-26T07:01:48;9.43;;;2.80;;
37771;SDS011;23610;59.380;24.642;2022-12-26T07:06:51;5.13;;;2.13;;
37771;SDS011;23610;59.380;24.642;2022-12-26T07:11:53;5.73;;;2.60;;
37771;SDS011;23610;59.380;24.642;2022-12-26T07:16:56;5.60;;;2.50;;
37771;SDS011;23610;59.380;24.642;2022-12-26T07:21:59;5.30;;;3.53;;
37771;SDS011;23610;59.380;24.642;2022-12-26T07:27:04;12.83;;;2.47;;
37771;SDS011;23610;59.380;24.642;2022-12-26T07:32:07;3.10;;;2.20;;
37771;SDS011;23610;59.380;24.642;2022-12-26T07:37:10;4.90;;;2.00;;
37771;SDS011;23610;59.380;24.642;2022-12-26T07:42:13;8.65;;;2.80;;
37771;SDS011;23610;59.380;24.642;2022-12-26T07:47:16;5.07;;;2.03;;
37771;SDS011;23610;59.380;24.642;2022-12-26T07:52:18;4.73;;;2.63;;
37771;SDS011;23610;59.380;24.642;2022-12-26T07:57:21;3.27;;;2.20;;
37771;SDS011;23610;59.380;24.642;2022-12-26T08:02:48;4.43;;;2.20;;
37771;SDS011;23610;59.380;24.642;2022-12-26T08:07:53;5.10;;;2.73;;
37771;SDS011;23610;59.380;24.642;2022-12-26T08:12:56;4.13;;;2.23;;
37771;SDS011;23610;59.380;24.642;2022-12-26T08:17:59;5.90;;;2.47;;
37771;SDS011;23610;59.380;24.642;2022-12-26T08:23:04;4.90;;;2.50;;
37771;SDS011;23610;59.380;24.642;2022-12-26T08:28:06;7.97;;;2.70;;
37771;SDS011;23610;59.380;24.642;2022-12-26T08:33:09;4.67;;;2.47;;
37771;SDS011;23610;59.380;24.642;2022-12-26T08:38:12;5.57;;;3.43;;
37771;SDS011;23610;59.380;24.642;2022-12-26T08:43:15;6.30;;;2.70;;
37771;SDS011;23610;59.380;24.642;2022-12-26T08:48:38;6.23;;;2.77;;
37771;SDS011;23610;59.380;24.642;2022-12-26T08:53:42;6.35;;;2.63;;
37771;SDS011;23610;59.380;24.642;2022-12-26T08:58:46;5.05;;;2.63;;
37771;SDS011;23610;59.380;24.642;2022-12-26T09:03:52;6.97;;;2.77;;
37771;SDS011;23610;59.380;24.642;2022-12-26T09:08:57;4.47;;;2.63;;
37771;SDS011;23610;59.380;24.642;2022-12-26T09:14:01;4.47;;;3.38;;
37771;SDS011;23610;59.380;24.642;2022-12-26T09:19:05;4.95;;;2.95;;
37771;SDS011;23610;59.380;24.642;2022-12-26T09:24:12;7.97;;;4.10;;
37771;SDS011;23610;59.380;24.642;2022-12-26T09:29:17;6.57;;;3.90;;
37771;SDS011;23610;59.380;24.642;2022-12-26T09:34:19;9.43;;;3.97;;
37771;SDS011;23610;59.380;24.642;2022-12-26T09:39:22;4.57;;;3.83;;
37771;SDS011;23610;59.380;24.642;2022-12-26T09:54:49;5.50;;;2.75;;
37771;SDS011;23610;59.380;24.642;2022-12-26T09:59:57;13.87;;;4.97;;
37771;SDS011;23610;59.380;24.642;2022-12-26T10:05:12;12.55;;;5.88;;
37771;SDS011;23610;59.380;24.642;2022-12-26T10:10:20;11.43;;;5.27;;
37771;SDS011;23610;59.380;24.642;2022-12-26T10:15:44;9.77;;;6.10;;
37771;SDS011;23610;59.380;24.642;2022-12-26T10:26:44;8.48;;;4.20;;
37771;SDS011;23610;59.380;24.642;2022-12-26T10:37:10;8.93;;;4.88;;
37771;SDS011;23610;59.380;24.642;2022-12-26T10:47:46;9.13;;;4.47;;
37771;SDS011;23610;59.380;24.642;2022-12-26T10:52:52;9.85;;;5.47;;
37771;SDS011;23610;59.380;24.642;2022-12-26T10:58:10;5.50;;;3.85;;
37771;SDS011;23610;59.380;24.642;2022-12-26T11:03:17;9.95;;;4.25;;
37771;SDS011;23610;59.380;24.642;2022-12-26T11:08:26;14.27;;;4.53;;
37771;SDS011;23610;59.380;24.642;2022-12-26T11:13:48;6.05;;;3.90;;
37771;SDS011;23610;59.380;24.642;2022-12-26T11:19:03;8.20;;;4.25;;
37771;SDS011;23610;59.380;24.642;2022-12-26T11:29:11;12.50;;;6.22;;
37771;SDS011;23610;59.380;24.642;2022-12-26T11:34:42;6.53;;;4.35;;
37771;SDS011;23610;59.380;24.642;2022-12-26T11:39:48;9.73;;;4.70;;
37771;SDS011;23610;59.380;24.642;2022-12-26T11:44:54;10.70;;;4.80;;
37771;SDS011;23610;59.380;24.642;2022-12-26T12:00:29;16.30;;;6.50;;
37771;SDS011;23610;59.380;24.642;2022-12-26T12:17:18;9.07;;;4.72;;
37771;SDS011;23610;59.380;24.642;2022-12-26T12:39:54;14.15;;;4.85;;
37771;SDS011;23610;59.380;24.642;2022-12-26T12:45:42;9.52;;;4.72;;
37771;SDS011;23610;59.380;24.642;2022-12-26T13:01:49;8.00;;;4.53;;
37771;SDS011;23610;59.380;24.642;2022-12-26T13:07:19;8.33;;;4.23;;
37771;SDS011;23610;59.380;24.642;2022-12-26T13:12:37;8.20;;;4.78;;
37771;SDS011;23610;59.380;24.642;2022-12-26T13:18:01;7.88;;;4.57;;
37771;SDS011;23610;59.380;24.642;2022-12-26T13:23:21;7.85;;;4.07;;
37771;SDS011;23610;59.380;24.642;2022-12-26T13:29:34;7.13;;;4.22;;
37771;SDS011;23610;59.380;24.642;2022-12-26T13:34:42;5.68;;;3.58;;
37771;SDS011;23610;59.380;24.642;2022-12-26T13:39:46;5.25;;;3.30;;
37771;SDS011;23610;59.380;24.642;2022-12-26T13:44:53;4.65;;;2.88;;
37771;SDS011;23610;59.380;24.642;2022-12-26T13:49:56;4.43;;;2.70;;
37771;SDS011;23610;59.380;24.642;2022-12-26T14:16:38;3.78;;;2.45;;
37771;SDS011;23610;59.380;24.642;2022-12-26T14:43:32;7.40;;;3.70;;
37771;SDS011;23610;59.380;24.642;2022-12-26T14:48:40;2.75;;;2.35;;
37771;SDS011;23610;59.380;24.642;2022-12-26T14:59:32;2.60;;;2.13;;
37771;SDS011;23610;59.380;24.642;2022-12-26T15:27:18;2.50;;;1.83;;
37771;SDS011;23610;59.380;24.642;2022-12-26T15:32:39;5.27;;;3.07;;
37771;SDS011;23610;59.380;24.642;2022-12-26T15:54:23;4.80;;;2.57;;
37771;SDS011;23610;59.380;24.642;2022-12-26T15:59:39;4.07;;;1.80;;
37771;SDS011;23610;59.380;24.642;2022-12-26T16:16:35;3.15;;;1.98;;
37771;SDS011;23610;59.380;24.642;2022-12-26T16:21:39;5.47;;;2.47;;
37771;SDS011;23610;59.380;24.642;2022-12-26T16:27:02;4.50;;;2.37;;
37771;SDS011;23610;59.380;24.642;2022-12-26T16:32:11;3.10;;;2.00;;
37771;SDS011;23610;59.380;24.642;2022-12-26T16:37:26;7.13;;;2.73;;
37771;SDS011;23610;59.380;24.642;2022-12-26T16:42:30;3.55;;;2.72;;
37771;SDS011;23610;59.380;24.642;2022-12-26T16:47:34;4.13;;;2.67;;
37771;SDS011;23610;59.380;24.642;2022-12-26T16:52:37;4.20;;;2.40;;
37771;SDS011;23610;59.380;24.642;2022-12-26T16:57:47;3.73;;;2.63;;
37771;SDS011;23610;59.380;24.642;2022-12-26T17:02:53;3.17;;;2.53;;
37771;SDS011;23610;59.380;24.642;2022-12-26T17:07:59;5.23;;;2.90;;
37771;SDS011;23610;59.380;24.642;2022-12-26T17:13:04;5.07;;;2.80;;
37771;SDS011;23610;59.380;24.642;2022-12-26T17:34:58;2.43;;;1.90;;
37771;SDS011;23610;59.380;24.642;2022-12-26T17:40:17;6.50;;;2.72;;
37771;SDS011;23610;59.380;24.642;2022-12-26T17:45:30;3.40;;;2.70;;
37771;SDS011;23610;59.380;24.642;2022-12-26T17:50:35;8.03;;;2.63;;
37771;SDS011;23610;59.380;24.642;2022-12-26T17:55:40;7.93;;;3.30;;
37771;SDS011;23610;59.380;24.642;2022-12-26T18:00:43;10.57;;;4.67;;
37771;SDS011;23610;59.380;24.642;2022-12-26T18:05:46;6.88;;;4.78;;
37771;SDS011;23610;59.380;24.642;2022-12-26T18:10:49;6.97;;;3.93;;
37771;SDS011;23610;59.380;24.642;2022-12-26T18:15:53;9.77;;;3.43;;
37771;SDS011;23610;59.380;24.642;2022-12-26T18:20:56;4.60;;;2.90;;
37771;SDS011;23610;59.380;24.642;2022-12-26T18:26:00;4.93;;;2.90;;
37771;SDS011;23610;59.380;24.642;2022-12-26T18:31:08;3.20;;;2.17;;
37771;SDS011;23610;59.380;24.642;2022-12-26T18:36:15;4.10;;;2.17;;
37771;SDS011;23610;59.380;24.642;2022-12-26T18:41:19;3.92;;;3.00;;
37771;SDS011;23610;59.380;24.642;2022-12-26T18:46:23;6.18;;;3.85;;
37771;SDS011;23610;59.380;24.642;2022-12-26T18:51:28;5.68;;;3.20;;
37771;SDS011;23610;59.380;24.642;2022-12-26T18:56:30;4.97;;;2.55;;
37771;SDS011;23610;59.380;24.642;2022-12-26T19:01:33;6.13;;;2.07;;
37771;SDS011;23610;59.380;24.642;2022-12-26T19:06:36;4.00;;;2.40;;
37771;SDS011;23610;59.380;24.642;2022-12-26T19:11:39;2.83;;;1.80;;
37771;SDS011;23610;59.380;24.642;2022-12-26T19:16:42;3.08;;;2.25;;
37771;SDS011;23610;59.380;24.642;2022-12-26T19:21:45;3.92;;;2.38;;
37771;SDS011;23610;59.380;24.642;2022-12-26T19:26:47;3.50;;;1.88;;
37771;SDS011;23610;59.380;24.642;2022-12-26T19:31:50;3.43;;;1.87;;
37771;SDS011;23610;59.380;24.642;2022-12-26T19:36:53;4.30;;;1.67;;
37771;SDS011;23610;59.380;24.642;2022-12-26T19:41:56;3.53;;;2.03;;
37771;SDS011;23610;59.380;24.642;2022-12-26T19:46:59;3.53;;;1.97;;
37771;SDS011;23610;59.380;24.642;2022-12-26T19:52:13;6.45;;;1.95;;
37771;SDS011;23610;59.380;24.642;2022-12-26T19:57:16;4.13;;;2.10;;
37771;SDS011;23610;59.380;24.642;2022-12-26T20:02:18;2.20;;;1.87;;
37771;SDS011;23610;59.380;24.642;2022-12-26T20:07:21;3.13;;;2.10;;
37771;SDS011;23610;59.380;24.642;2022-12-26T20:12:24;2.93;;;2.23;;
37771;SDS011;23610;59.380;24.642;2022-12-26T20:17:26;3.43;;;2.00;;
37771;SDS011;23610;59.380;24.642;2022-12-26T20:22:29;3.20;;;1.50;;
37771;SDS011;23610;59.380;24.642;2022-12-26T20:27:32;5.50;;;2.87;;
37771;SDS011;23610;59.380;24.642;2022-12-26T20:32:34;3.07;;;2.03;;
37771;SDS011;23610;59.380;24.642;2022-12-26T20:37:37;3.50;;;1.97;;
37771;SDS011;23610;59.380;24.642;2022-12-26T20:42:40;3.13;;;1.97;;
37771;SDS011;23610;59.380;24.642;2022-12-26T20:47:42;2.53;;;2.10;;
37771;SDS011;23610;59.380;24.642;2022-12-26T20:52:45;2.50;;;2.00;;
37771;SDS011;23610;59.380;24.642;2022-12-26T20:57:48;3.70;;;2.20;;
37771;SDS011;23610;59.380;24.642;2022-12-26T21:02:50;2.57;;;1.50;;
37771;SDS011;23610;59.380;24.642;2022-12-26T21:07:53;6.20;;;1.40;;
37771;SDS011;23610;59.380;24.642;2022-12-26T21:12:56;3.73;;;1.57;;
37771;SDS011;23610;59.380;24.642;2022-12-26T21:17:59;3.00;;;2.00;;
37771;SDS011;23610;59.380;24.642;2022-12-26T21:23:01;2.23;;;2.03;;
37771;SDS011;23610;59.380;24.642;2022-12-26T21:28:04;3.67;;;2.13;;
37771;SDS011;23610;59.380;24.642;2022-12-26T21:33:06;3.53;;;1.92;;
37771;SDS011;23610;59.380;24.642;2022-12-26T21:38:09;4.73;;;2.30;;
37771;SDS011;23610;59.380;24.642;2022-12-26T21:43:12;3.00;;;1.97;;
37771;SDS011;23610;59.380;24.642;2022-12-26T21:48:15;4.13;;;1.60;;
37771;SDS011;23610;59.380;24.642;2022-12-26T21:53:18;7.03;;;2.70;;
37771;SDS011;23610;59.380;24.642;2022-12-26T21:58:21;5.50;;;2.60;;
37771;SDS011;23610;59.380;24.642;2022-12-26T22:03:24;3.63;;;2.13;;
37771;SDS011;23610;59.380;24.642;2022-12-26T22:08:45;4.73;;;2.20;;
37771;SDS011;23610;59.380;24.642;2022-12-26T22:13:48;3.20;;;2.23;;
37771;SDS011;23610;59.380;24.642;2022-12-26T22:18:50;2.73;;;2.20;;
37771;SDS011;23610;59.380;24.642;2022-12-26T22:23:53;2.07;;;1.77;;
37771;SDS011;23610;59.380;24.642;2022-12-26T22:28:56;2.83;;;1.93;;
37771;SDS011;23610;59.380;24.642;2022-12-26T22:34:00;2.53;;;2.07;;
37771;SDS011;23610;59.380;24.642;2022-12-26T22:39:06;3.53;;;2.03;;
37771;SDS011;23610;59.380;24.642;2022-12-26T22:44:13;5.03;;;2.17;;
37771;SDS011;23610;59.380;24.642;2022-12-26T22:49:16;5.53;;;2.93;;
37771;SDS011;23610;59.380;24.642;2022-12-26T22:54:18;3.50;;;2.10;;
37771;SDS011;23610;59.380;24.642;2022-12-26T22:59:21;3.20;;;2.27;;
37771;SDS011;23610;59.380;24.642;2022-12-26T23:04:44;4.13;;;2.07;;
37771;SDS011;23610;59.380;24.642;2022-12-26T23:09:47;2.27;;;1.87;;
37771;SDS011;23610;59.380;24.642;2022-12-26T23:14:50;3.07;;;1.87;;
37771;SDS011;23610;59.380;24.642;2022-12-26T23:19:52;5.67;;;2.00;;
37771;SDS011;23610;59.380;24.642;2022-12-26T23:25:13;2.87;;;1.93;;
37771;SDS011;23610;59.380;24.642;2022-12-26T23:30:16;6.70;;;2.20;;
37771;SDS011;23610;59.380;24.642;2022-12-26T23:35:19;1.80;;;1.60;;
37771;SDS011;23610;59.380;24.642;2022-12-26T23:40:22;1.83;;;1.37;;
37771;SDS011;23610;59.380;24.642;2022-12-26T23:45:25;3.27;;;1.87;;
37771;SDS011;23610;59.380;24.642;2022-12-26T23:50:27;5.30;;;2.20;;
37771;SDS011;23610;59.380;24.642;2022-12-26T23:55:30;4.13;;;2.57;;
